South Timbalier Oil Rig, Louisiana
Current Conditions -  °F | °C
As of 10:35 AM on Wednesday 22 Oct 2014 (Local Time) from KSQE Reporting Station
Broken Clouds Broken Clouds  
Wind Chill: 77°   Ceiling: 3100
Heat Index: 79°   Visibility: 10mi
Dew Point: 64°   Wind: 16mph
Humidity: 65%   Direction: 70°ENE
Pressure: 30.04"   Gusts: 31mph
Location:  28.15°N, 90.72°W
Report Text: KSQE 221535Z AUTO 07014G27KT 10SM BKN031 BKN038 25/18 A3004 RMK A01
Loading
Personal Weather Stations






























Interactive Weather Map
Tropical Storm Tracking
New forecast layout! Learn more

10-Day Weather Forecast

Advertisements
Track Severe Weather on mobile